createdAt,value
2018-07-08T12:43:45.823Z,37.09
2018-07-08T12:44:45.907Z,37.08
2018-07-08T12:45:45.838Z,36.75
2018-07-08T12:46:45.866Z,37.38
2018-07-08T12:47:45.878Z,37.88
2018-07-08T12:48:45.903Z,38.41
2018-07-08T12:49:45.918Z,38.65
2018-07-08T12:50:45.948Z,38.78
2018-07-08T12:51:45.975Z,38.47
2018-07-08T12:52:45.986Z,38.25
2018-07-08T12:53:46.010Z,38.16
2018-07-08T12:54:46.045Z,38.03
2018-07-08T12:55:46.063Z,37.09
2018-07-08T12:56:46.073Z,36.79
2018-07-08T12:57:46.128Z,37.34
2018-07-08T12:58:46.182Z,37.12
2018-07-08T12:59:46.135Z,37.25
2018-07-08T13:00:46.158Z,37.68
2018-07-08T13:01:46.184Z,37.58
2018-07-08T13:02:46.196Z,37.11
2018-07-08T13:03:46.216Z,37.24
2018-07-08T13:04:46.241Z,37.53
2018-07-08T13:05:46.265Z,37.72
2018-07-08T13:06:46.329Z,37.82
2018-07-08T13:07:46.310Z,37.56
2018-07-08T13:08:46.325Z,37.66
2018-07-08T13:09:46.364Z,37.70
2018-07-08T13:10:46.375Z,37.56
2018-07-08T13:11:46.408Z,37.39
2018-07-08T13:12:46.429Z,37.38
2018-07-08T13:13:46.441Z,37.33
2018-07-08T13:14:46.461Z,37.45
2018-07-08T13:15:46.487Z,37.93
2018-07-08T13:16:46.503Z,37.81
2018-07-08T13:17:46.528Z,38.34
2018-07-08T13:18:46.544Z,37.28
2018-07-08T13:19:46.569Z,37.63
2018-07-08T13:20:46.589Z,38.06
2018-07-08T13:21:46.604Z,37.78
2018-07-08T13:22:46.629Z,37.59
2018-07-08T13:23:46.656Z,37.72
2018-07-08T13:24:46.686Z,37.68
2018-07-08T13:25:46.718Z,37.84
2018-07-08T13:26:46.718Z,37.43
2018-07-08T13:27:46.750Z,37.43
2018-07-08T13:28:46.780Z,37.23
2018-07-08T13:29:46.786Z,37.35
2018-07-08T13:30:46.809Z,37.50
2018-07-08T13:31:46.831Z,37.75
2018-07-08T13:32:46.847Z,38.10
2018-07-08T13:33:46.872Z,38.34
2018-07-08T13:34:46.897Z,38.67
2018-07-08T13:35:46.916Z,38.84
2018-07-08T13:36:46.963Z,39.05
2018-07-08T13:37:46.990Z,39.43
2018-07-08T13:38:47.003Z,39.47
2018-07-08T13:39:47.006Z,39.91
2018-07-08T13:40:47.031Z,39.10
2018-07-08T13:41:47.057Z,39.01
2018-07-08T13:42:47.156Z,38.50
2018-07-08T13:43:47.100Z,38.34
2018-07-08T13:44:47.122Z,37.70
2018-07-08T13:45:47.134Z,37.08
2018-07-08T13:46:47.164Z,37.08
2018-07-08T13:47:47.182Z,37.53
2018-07-08T13:48:47.200Z,37.90
2018-07-08T13:49:47.216Z,37.46
2018-07-08T13:50:47.245Z,37.42
2018-07-08T13:51:47.266Z,37.31
2018-07-08T13:52:47.300Z,37.85
2018-07-08T13:53:47.312Z,38.49
2018-07-08T13:54:47.327Z,38.52
2018-07-08T13:55:47.369Z,38.59
2018-07-08T13:56:47.374Z,38.34
2018-07-08T13:57:47.399Z,37.70
2018-07-08T13:58:47.422Z,36.99
2018-07-08T13:59:47.461Z,36.97
2018-07-08T14:00:47.474Z,36.72
2018-07-08T14:01:47.490Z,36.77
2018-07-08T14:02:47.511Z,37.04
2018-07-08T14:03:47.535Z,37.30
2018-07-08T14:04:47.552Z,36.52
2018-07-08T14:05:47.571Z,35.15
2018-07-08T14:06:47.598Z,35.03
2018-07-08T14:07:47.611Z,35.52
2018-07-08T14:08:47.636Z,36.21
2018-07-08T14:09:47.663Z,36.31
2018-07-08T14:10:47.685Z,36.93
2018-07-08T14:11:47.706Z,37.68
2018-07-08T14:12:47.719Z,38.21
2018-07-08T14:14:47.855Z,39.06
2018-07-08T14:15:47.789Z,39.06
2018-07-08T14:16:47.808Z,38.43
2018-07-08T14:17:47.834Z,37.93
2018-07-08T14:19:47.878Z,37.68
2018-07-08T14:20:48.034Z,38.07
2018-07-08T14:21:47.918Z,37.90
2018-07-08T14:22:47.950Z,37.49
2018-07-08T14:23:47.963Z,37.28
2018-07-08T14:24:47.989Z,37.42
2018-07-08T14:25:48.012Z,38.28
2018-07-08T14:26:48.026Z,39.07
2018-07-08T14:27:48.062Z,39.59
2018-07-08T14:28:48.085Z,39.80
2018-07-08T14:29:48.096Z,40.00
2018-07-08T14:30:48.138Z,40.33
2018-07-08T14:31:48.142Z,40.25
2018-07-08T14:33:48.205Z,39.85
2018-07-08T14:34:48.233Z,39.70
2018-07-08T14:35:48.231Z,39.00
2018-07-08T14:36:48.263Z,38.40
2018-07-08T14:37:48.279Z,38.49
2018-07-08T14:38:48.291Z,38.50
2018-07-08T14:39:48.336Z,38.79
2018-07-08T14:40:48.441Z,39.43
2018-07-08T14:41:48.366Z,39.50
2018-07-08T14:42:48.397Z,39.90
2018-07-08T14:43:48.418Z,40.41
2018-07-08T14:44:48.445Z,40.79
2018-07-08T14:45:48.461Z,40.72
2018-07-08T14:46:48.481Z,41.04
2018-07-08T14:47:48.510Z,41.05
2018-07-08T14:48:48.526Z,40.53
2018-07-08T14:49:48.567Z,39.70
2018-07-08T14:50:48.569Z,38.55
2018-07-08T14:51:48.583Z,38.22
2018-07-08T14:52:48.685Z,38.38
2018-07-08T14:53:48.624Z,38.87
2018-07-08T14:54:48.661Z,38.47
2018-07-08T14:55:48.702Z,37.40
2018-07-08T14:56:48.701Z,37.06
2018-07-08T14:57:48.709Z,37.43
2018-07-08T14:58:48.748Z,38.02
2018-07-08T14:59:48.761Z,38.25
2018-07-08T15:00:48.778Z,38.37
2018-07-08T15:01:48.805Z,38.37
2018-07-08T15:02:48.815Z,36.64
2018-07-08T15:03:48.841Z,35.32
2018-07-08T15:04:48.879Z,35.56
2018-07-08T15:05:48.897Z,36.21
2018-07-08T15:06:48.910Z,36.86
2018-07-08T15:07:48.918Z,36.40
2018-07-08T15:08:48.943Z,36.35
2018-07-08T15:09:48.989Z,36.46
2018-07-08T15:10:48.985Z,36.48
2018-07-08T15:11:49.008Z,36.55
2018-07-08T15:12:49.031Z,36.67
2018-07-08T15:13:49.066Z,36.06
2018-07-08T15:14:49.107Z,36.15
2018-07-08T15:15:49.135Z,35.76
2018-07-08T15:16:49.109Z,35.25
2018-07-08T15:17:49.123Z,34.19
2018-07-08T15:18:49.149Z,33.78
2018-07-08T15:19:49.167Z,33.96
2018-07-08T15:20:49.190Z,33.84
2018-07-08T15:22:49.222Z,33.28
2018-07-08T15:23:49.234Z,32.90
2018-07-08T15:24:49.268Z,32.66
2018-07-08T15:25:49.288Z,32.27
2018-07-08T15:26:49.401Z,31.91
2018-07-08T15:27:49.342Z,31.74
2018-07-08T15:28:49.350Z,31.50
2018-07-08T15:29:49.384Z,31.54
2018-07-08T15:30:49.382Z,31.53
2018-07-08T15:31:49.403Z,31.50
2018-07-08T15:32:49.428Z,31.41
2018-07-08T15:33:49.480Z,31.18
2018-07-08T15:35:49.486Z,30.83
2018-07-08T15:36:49.512Z,30.81
2018-07-08T15:37:49.515Z,30.57
2018-07-08T15:38:49.541Z,30.45
2018-07-08T15:39:49.561Z,30.48
2018-07-08T15:40:49.572Z,30.40
2018-07-08T15:41:49.588Z,30.26
2018-07-08T15:42:49.609Z,30.44
2018-07-08T15:43:49.629Z,30.44
2018-07-08T15:44:49.647Z,30.44
2018-07-08T15:45:49.680Z,30.36
2018-07-08T15:46:49.733Z,30.36
2018-07-08T15:47:49.688Z,30.30
2018-07-08T15:48:49.706Z,30.19
2018-07-08T15:49:49.746Z,30.11
2018-07-08T15:50:49.755Z,30.04
2018-07-08T15:51:49.781Z,29.95
2018-07-08T15:53:49.793Z,29.82
2018-07-08T15:54:49.812Z,29.63
2018-07-08T15:55:49.855Z,29.73
2018-07-08T15:56:49.851Z,29.63
2018-07-08T15:57:49.875Z,29.47
2018-07-08T15:58:49.870Z,29.25
2018-07-08T15:59:49.884Z,29.21
2018-07-08T16:01:49.947Z,29.02
2018-07-08T16:02:49.957Z,28.98
2018-07-08T16:03:49.966Z,28.91
2018-07-08T16:04:49.976Z,29.00
2018-07-08T16:05:49.990Z,28.94
2018-07-08T16:06:50.023Z,28.92
2018-07-08T16:07:50.026Z,28.94
2018-07-08T16:08:50.040Z,28.65
2018-07-08T16:09:50.054Z,28.52
2018-07-08T16:10:50.072Z,28.64
2018-07-08T16:11:50.120Z,28.62
2018-07-08T16:12:50.118Z,28.61
2018-07-08T16:13:50.122Z,28.45
2018-07-08T16:14:50.143Z,28.38
2018-07-08T16:15:50.194Z,28.42
2018-07-08T16:16:50.177Z,28.28
2018-07-08T16:17:50.201Z,28.32
2018-07-08T16:18:50.223Z,28.45
2018-07-08T16:19:50.218Z,28.67
2018-07-08T16:20:50.241Z,28.64
2018-07-08T16:21:50.258Z,28.54
2018-07-08T16:22:50.280Z,28.40
2018-07-08T16:23:50.300Z,28.46
2018-07-08T16:24:50.403Z,28.38
2018-07-08T16:25:50.374Z,28.09
2018-07-08T16:26:50.329Z,27.98
2018-07-08T16:27:50.395Z,28.02
2018-07-08T16:28:50.371Z,27.98
2018-07-08T16:29:50.390Z,27.99
2018-07-08T16:30:50.399Z,28.06
2018-07-08T16:31:50.407Z,28.25
2018-07-08T16:32:50.434Z,28.42
2018-07-08T16:33:50.452Z,28.35
2018-07-08T16:34:50.464Z,28.35
2018-07-08T16:35:50.536Z,28.21
2018-07-08T16:36:50.503Z,28.05
2018-07-08T16:37:50.507Z,28.08
2018-07-08T16:38:50.524Z,27.99
2018-07-08T16:39:50.549Z,27.96
2018-07-08T16:40:50.557Z,27.81
2018-07-08T16:41:50.576Z,27.93
2018-07-08T16:42:50.587Z,27.71
2018-07-08T16:43:50.605Z,27.65
2018-07-08T16:45:50.647Z,27.62
2018-07-08T16:46:50.655Z,27.59
2018-07-08T16:47:50.680Z,27.58
2018-07-08T16:48:50.683Z,27.62
2018-07-08T16:49:50.702Z,27.76
2018-07-08T16:50:50.721Z,27.76
2018-07-08T16:51:50.747Z,27.68
2018-07-08T16:52:50.742Z,27.76
2018-07-08T16:53:50.765Z,27.66
2018-07-08T16:54:50.775Z,27.65
2018-07-08T16:55:50.797Z,27.65
2018-07-08T16:56:50.817Z,27.66
2018-07-08T16:57:50.827Z,27.76
2018-07-08T16:58:50.855Z,27.76
2018-07-08T16:59:50.861Z,27.66
2018-07-08T17:00:50.873Z,27.63
2018-07-08T17:01:50.884Z,27.59
2018-07-08T17:02:50.912Z,27.50
2018-07-08T17:03:50.924Z,27.55
2018-07-08T17:04:50.932Z,27.52
2018-07-08T17:05:50.955Z,27.52
2018-07-08T17:06:50.961Z,27.55
2018-07-08T17:07:50.975Z,27.50
2018-07-08T17:08:50.991Z,27.55
2018-07-08T17:09:51.021Z,27.52
2018-07-08T17:10:51.041Z,27.53
2018-07-08T17:11:51.056Z,27.48
2018-07-08T17:12:51.088Z,27.33
2018-07-08T17:13:51.076Z,27.12
2018-07-08T17:14:51.100Z,27.09
2018-07-08T17:15:51.103Z,27.12
2018-07-08T17:16:51.121Z,26.91
2018-07-08T17:17:51.135Z,26.86
2018-07-08T17:18:51.157Z,26.94
2018-07-08T17:19:51.187Z,26.98
2018-07-08T17:20:51.180Z,26.97
2018-07-08T17:21:51.201Z,27.05
2018-07-08T17:22:51.236Z,27.02
2018-07-08T17:23:51.242Z,27.12
2018-07-08T17:24:51.265Z,27.09
2018-07-08T17:25:51.258Z,27.11
2018-07-08T17:26:51.290Z,27.24
2018-07-08T17:27:51.297Z,27.28
2018-07-08T17:28:51.303Z,27.43
2018-07-08T17:29:51.320Z,27.38
2018-07-08T17:30:51.329Z,27.35
2018-07-08T17:32:51.432Z,27.45
2018-07-08T17:33:51.386Z,27.42
2018-07-08T17:34:51.393Z,27.43
2018-07-08T17:35:51.413Z,27.31
2018-07-08T17:36:51.427Z,27.08
2018-07-08T17:37:51.443Z,27.08
2018-07-08T17:38:51.468Z,26.97
2018-07-08T17:39:51.476Z,27.05
2018-07-08T17:40:51.519Z,27.01
2018-07-08T17:41:51.499Z,27.02
2018-07-08T17:42:51.515Z,26.87
2018-07-08T17:43:51.535Z,26.73
2018-07-08T17:45:51.574Z,26.64
2018-07-08T17:46:51.577Z,26.73
2018-07-08T17:47:51.599Z,26.72
2018-07-08T17:48:51.617Z,26.65
2018-07-08T17:51:20.982Z,26.64
2018-07-08T18:01:55.268Z,26.75
2018-07-08T18:02:55.273Z,26.47
2018-07-08T18:03:55.283Z,26.50
2018-07-08T18:04:55.302Z,26.47
2018-07-08T18:05:55.324Z,26.36
2018-07-08T18:06:55.349Z,26.44
2018-07-08T18:07:55.356Z,26.51
2018-07-08T18:08:55.396Z,26.51
2018-07-08T18:09:55.384Z,26.49
2018-07-08T18:10:55.392Z,26.51
2018-07-08T18:11:55.419Z,26.51
2018-07-08T18:12:55.478Z,26.49
2018-07-08T18:13:55.451Z,26.47
2018-07-08T18:14:55.455Z,26.49
2018-07-08T18:15:55.464Z,26.34
2018-07-08T18:16:55.486Z,26.36
2018-07-08T18:17:55.503Z,26.32
2018-07-08T18:18:55.511Z,26.38
2018-07-08T18:19:55.537Z,26.31
2018-07-08T18:20:55.544Z,26.12
2018-07-08T18:21:55.561Z,26.16
2018-07-08T18:22:55.575Z,26.09
2018-07-08T18:23:55.582Z,26.13
2018-07-08T18:24:55.620Z,26.11
2018-07-08T18:25:55.631Z,26.06
2018-07-08T18:26:55.647Z,25.98
2018-07-08T18:27:55.736Z,26.00
2018-07-08T18:28:55.666Z,26.00
2018-07-08T18:29:55.697Z,25.90
2018-07-08T18:30:55.695Z,25.78
2018-07-08T18:31:55.761Z,25.81
2018-07-08T18:32:55.730Z,25.83
2018-07-08T18:33:55.741Z,25.79
2018-07-08T18:34:55.763Z,25.63
2018-07-08T18:35:55.781Z,25.63
2018-07-08T18:36:55.787Z,25.56
2018-07-08T18:37:55.841Z,25.53
2018-07-08T18:38:55.813Z,25.67
2018-07-08T18:39:55.824Z,25.61
2018-07-08T18:40:55.843Z,25.49
2018-07-08T18:41:55.864Z,25.63
2018-07-08T18:42:55.880Z,25.53
2018-07-08T18:43:55.880Z,25.53
2018-07-08T18:44:55.899Z,25.48
2018-07-08T18:45:55.915Z,25.59
2018-07-08T18:46:55.932Z,25.49
2018-07-08T18:47:55.938Z,25.56
2018-07-08T18:49:55.966Z,25.48
2018-07-08T18:50:55.988Z,25.45
2018-07-08T18:51:56.002Z,25.49
2018-07-08T18:52:56.025Z,25.48
2018-07-08T18:53:56.028Z,25.46
2018-07-08T18:54:56.051Z,25.41
2018-07-08T18:55:56.052Z,25.51
2018-07-08T18:56:56.075Z,25.41
2018-07-08T18:57:56.085Z,25.38
2018-07-08T18:58:56.104Z,25.26
2018-07-08T18:59:56.119Z,25.30
2018-07-08T19:00:56.132Z,25.05
2018-07-08T19:01:56.145Z,25.05
2018-07-08T19:02:56.165Z,25.08
2018-07-08T19:03:56.172Z,25.02
2018-07-08T19:04:56.196Z,25.01
2018-07-08T19:05:56.220Z,24.94
2018-07-08T19:06:56.226Z,24.90
2018-07-08T19:07:56.231Z,24.87
2018-07-08T19:08:56.258Z,24.86
2018-07-08T19:09:56.265Z,24.71
2018-07-08T19:10:56.269Z,24.74
2018-07-08T19:11:56.281Z,24.71
2018-07-08T19:12:56.306Z,24.66
2018-07-08T19:13:56.326Z,24.60
2018-07-08T19:14:56.338Z,24.61
2018-07-08T19:15:56.351Z,24.59
2018-07-08T19:16:56.352Z,24.63
2018-07-08T19:17:56.425Z,24.61
2018-07-08T19:18:56.385Z,24.48
2018-07-08T19:19:56.409Z,24.45
2018-07-08T19:20:56.431Z,24.48
2018-07-08T19:21:56.427Z,24.36
2018-07-08T19:22:56.438Z,24.42
2018-07-08T19:23:56.461Z,24.29
2018-07-08T19:24:56.479Z,24.31
2018-07-08T19:25:56.486Z,24.34
2018-07-08T19:26:56.557Z,24.29
2018-07-08T19:27:56.521Z,24.31
2018-07-08T19:28:56.529Z,24.37
2018-07-08T19:29:56.545Z,24.34
2018-07-08T19:30:56.556Z,24.34
2018-07-08T19:31:56.576Z,24.29
2018-07-08T19:32:56.588Z,24.24
2018-07-08T19:33:56.599Z,24.06
2018-07-08T19:34:56.624Z,24.09
2018-07-08T19:35:56.625Z,24.04
2018-07-08T19:36:56.642Z,23.90
2018-07-08T19:37:56.657Z,23.94
2018-07-08T19:38:56.665Z,23.86
2018-07-08T19:39:56.686Z,23.86
2018-07-08T19:40:56.691Z,23.87
2018-07-08T19:41:56.714Z,23.84
2018-07-08T19:42:56.726Z,23.90
2018-07-08T19:43:56.736Z,23.77
2018-07-08T19:44:56.746Z,23.77
2018-07-08T19:45:56.758Z,23.74
2018-07-08T19:46:56.800Z,23.57
2018-07-08T19:47:56.789Z,23.71
2018-07-08T19:48:56.806Z,23.57
2018-07-08T19:49:56.827Z,23.54
2018-07-08T19:50:56.839Z,23.59
2018-07-08T19:51:56.851Z,23.59
2018-07-08T19:52:56.862Z,23.57
2018-07-08T19:53:56.861Z,23.53
2018-07-08T19:54:56.889Z,23.56
2018-07-08T19:55:56.906Z,23.50
2018-07-08T19:56:56.906Z,23.47
2018-07-08T19:57:56.929Z,23.38
2018-07-08T19:58:56.990Z,23.26
2018-07-08T19:59:56.947Z,23.26
2018-07-08T20:00:56.962Z,23.22
2018-07-08T20:01:56.976Z,23.22
2018-07-08T20:02:56.986Z,23.14
2018-07-08T20:03:57.007Z,23.19
2018-07-08T20:05:57.042Z,23.16
2018-07-08T20:06:57.040Z,23.07
2018-07-08T20:07:57.070Z,23.14
2018-07-08T20:08:57.083Z,23.09
2018-07-08T20:09:57.099Z,23.06
2018-07-08T20:10:57.102Z,23.03
2018-07-08T20:11:57.115Z,23.04
2018-07-08T20:12:57.120Z,22.97
2018-07-08T20:13:57.163Z,22.94
2018-07-08T20:14:57.151Z,22.88
2018-07-08T20:15:57.166Z,22.94
2018-07-08T20:16:57.171Z,22.85
2018-07-08T20:17:57.200Z,22.86
2018-07-08T20:18:57.208Z,22.81
2018-07-08T20:19:57.229Z,22.75
2018-07-08T20:20:57.252Z,22.75
2018-07-08T20:21:57.247Z,22.78
2018-07-08T20:22:57.336Z,22.75
2018-07-08T20:23:57.283Z,22.76
2018-07-08T20:24:57.289Z,22.69
2018-07-08T20:25:57.308Z,22.67
2018-07-08T20:26:57.313Z,22.64
2018-07-08T20:27:57.333Z,22.59
2018-07-08T20:28:57.333Z,22.63
2018-07-08T20:29:57.353Z,22.69
2018-07-08T20:30:57.358Z,22.59
2018-07-08T20:31:57.376Z,22.64
2018-07-08T20:32:57.390Z,22.57
2018-07-08T20:33:57.400Z,22.48
2018-07-08T20:34:57.419Z,22.45
2018-07-08T20:35:57.435Z,22.36
2018-07-08T20:36:57.443Z,22.33
2018-07-08T20:37:57.478Z,22.21
2018-07-08T20:38:57.510Z,22.26
2018-07-08T20:39:57.490Z,22.02
2018-07-08T20:40:57.502Z,22.08
2018-07-08T20:41:57.517Z,22.04
2018-07-08T20:42:57.514Z,22.08
2018-07-08T20:43:57.548Z,22.02
2018-07-08T20:44:57.546Z,22.08
2018-07-08T20:45:57.562Z,21.90
2018-07-08T20:47:57.649Z,21.91
2018-07-08T20:48:57.594Z,21.93
2018-07-08T20:49:57.618Z,21.90
2018-07-08T20:50:57.647Z,21.85
2018-07-08T20:51:57.636Z,21.83
2018-07-08T20:52:57.650Z,21.82
2018-07-08T20:53:57.659Z,21.86
2018-07-08T20:54:57.669Z,21.81
2018-07-08T20:55:57.689Z,21.74
2018-07-08T20:56:57.711Z,21.79
2018-07-08T20:57:57.712Z,21.68
2018-07-08T20:58:57.730Z,21.71
2018-07-08T20:59:57.742Z,21.73
2018-07-08T21:00:57.760Z,21.73
2018-07-08T21:01:57.771Z,21.73
2018-07-08T21:02:57.786Z,21.66
2018-07-08T21:03:57.789Z,21.66
2018-07-08T21:04:57.804Z,21.68
2018-07-08T21:05:57.812Z,21.56
2018-07-08T21:06:57.832Z,21.61
2018-07-08T21:07:57.853Z,21.52
2018-07-08T21:08:57.860Z,21.56
2018-07-08T21:09:57.861Z,21.56
2018-07-08T21:10:57.880Z,21.53
2018-07-08T21:11:57.978Z,21.43
2018-07-08T21:14:57.958Z,21.37
2018-07-08T21:15:57.944Z,21.33
2018-07-08T21:16:57.964Z,21.27
2018-07-08T21:17:57.971Z,21.27
2018-07-08T21:18:57.994Z,21.21
2018-07-08T21:19:58.014Z,21.21
2018-07-08T21:20:58.005Z,21.08
2018-07-08T21:21:58.020Z,21.24
2018-07-08T21:22:58.044Z,21.21
2018-07-08T21:23:58.054Z,21.13
2018-07-08T21:24:58.054Z,21.11
2018-07-08T21:25:58.072Z,21.15
2018-07-08T21:26:58.076Z,21.15
2018-07-08T21:27:58.103Z,21.13
2018-07-08T21:28:58.095Z,21.08
2018-07-08T21:29:58.127Z,21.06
2018-07-08T21:30:58.130Z,21.03
2018-07-08T21:31:58.131Z,20.91
2018-07-08T21:32:58.152Z,20.98
2018-07-08T21:33:58.195Z,20.83
2018-07-08T21:34:58.177Z,20.82
2018-07-08T21:35:58.192Z,20.87
2018-07-08T21:36:58.222Z,20.82
2018-07-08T21:37:58.218Z,20.79
2018-07-08T21:38:58.227Z,20.82
2018-07-08T21:39:58.243Z,20.82
2018-07-08T21:40:58.256Z,20.81
2018-07-08T21:41:58.270Z,20.73
2018-07-08T21:42:58.274Z,20.72
2018-07-08T21:43:58.288Z,20.76
2018-07-08T21:44:58.316Z,20.75
2018-07-08T21:45:58.311Z,20.79
2018-07-08T21:46:58.339Z,20.75
2018-07-08T21:47:58.339Z,20.76
2018-07-08T21:48:58.351Z,20.76
2018-07-08T21:49:58.365Z,20.78
2018-07-08T21:50:58.380Z,20.78
2018-07-08T21:51:58.388Z,20.79
2018-07-08T21:52:58.400Z,20.73
2018-07-08T21:53:58.422Z,20.75
2018-07-08T21:54:58.423Z,20.66
2018-07-08T21:55:58.439Z,20.58
2018-07-08T21:56:58.467Z,20.58
2018-07-08T21:57:58.481Z,20.53
2018-07-08T21:58:58.473Z,20.54
2018-07-08T21:59:58.505Z,20.53
2018-07-08T22:00:58.513Z,20.56
2018-07-08T22:01:58.509Z,20.44
2018-07-08T22:02:58.523Z,20.40
2018-07-08T22:03:58.543Z,20.35
2018-07-08T22:04:58.543Z,20.35
2018-07-08T22:05:58.554Z,20.31
2018-07-08T22:06:58.564Z,20.27
2018-07-08T22:07:58.590Z,20.26
2018-07-08T22:08:58.600Z,20.25
2018-07-08T22:09:58.608Z,20.20
2018-07-08T22:10:58.621Z,20.16
2018-07-08T22:11:58.634Z,20.22
2018-07-08T22:12:58.659Z,20.22
2018-07-08T22:13:58.652Z,20.13
2018-07-08T22:14:58.668Z,20.08
2018-07-08T22:15:58.678Z,20.20
2018-07-08T22:16:58.696Z,20.12
2018-07-08T22:17:58.714Z,20.17
2018-07-08T22:18:58.716Z,20.12
2018-07-08T22:19:58.731Z,20.13
2018-07-08T22:20:58.739Z,20.17
2018-07-08T22:21:58.754Z,20.04
2018-07-08T22:22:58.776Z,19.92
2018-07-08T22:23:58.776Z,20.00
2018-07-08T22:24:58.792Z,19.98
2018-07-08T22:25:58.796Z,19.90
2018-07-08T22:26:58.815Z,19.94
2018-07-08T22:27:58.826Z,19.89
2018-07-08T22:28:58.846Z,19.89
2018-07-08T22:29:58.848Z,19.83
2018-07-08T22:30:58.857Z,19.87
2018-07-08T22:31:58.873Z,19.76
2018-07-08T22:32:58.894Z,19.78
2018-07-08T22:33:58.897Z,19.78
2018-07-08T22:34:58.907Z,19.70
2018-07-08T22:35:58.920Z,19.78
2018-07-08T22:36:58.933Z,19.70
2018-07-08T22:37:58.949Z,19.68
2018-07-08T22:38:58.951Z,19.62
2018-07-08T22:39:58.961Z,19.65
2018-07-08T22:40:59.003Z,19.67
2018-07-08T22:41:58.997Z,19.70
2018-07-08T22:42:59.003Z,19.70
2018-07-08T22:43:59.021Z,19.64
2018-07-08T22:44:59.032Z,19.68
2018-07-08T22:45:59.051Z,19.67
2018-07-08T22:46:59.052Z,19.68
2018-07-08T22:47:59.063Z,19.58
2018-07-08T22:48:59.080Z,19.57
2018-07-08T22:49:59.091Z,19.43
2018-07-08T22:50:59.095Z,19.52
2018-07-08T22:51:59.110Z,19.40
2018-07-08T22:52:59.132Z,19.40
2018-07-08T22:53:59.142Z,19.40
2018-07-08T22:54:59.145Z,19.53
2018-07-08T22:55:59.152Z,19.50
2018-07-08T22:56:59.171Z,19.52
2018-07-08T22:57:59.181Z,19.31
2018-07-08T22:58:59.196Z,19.34
2018-07-08T22:59:59.201Z,19.27
2018-07-08T23:00:59.224Z,19.23
2018-07-08T23:01:59.254Z,19.32
2018-07-08T23:02:59.239Z,19.28
2018-07-08T23:03:59.250Z,19.23
2018-07-08T23:04:59.272Z,19.13
2018-07-08T23:05:59.284Z,19.07
2018-07-08T23:06:59.280Z,19.24
2018-07-08T23:07:59.304Z,19.13
2018-07-08T23:08:59.306Z,19.15
2018-07-08T23:09:59.325Z,19.23
2018-07-08T23:10:59.340Z,19.25
2018-07-08T23:11:59.352Z,19.13
2018-07-08T23:12:59.355Z,19.17
2018-07-08T23:13:59.517Z,19.09
2018-07-08T23:14:59.387Z,19.05
2018-07-08T23:15:59.394Z,19.09
2018-07-08T23:16:59.401Z,18.94
2018-07-08T23:17:59.410Z,18.93
2018-07-08T23:18:59.426Z,18.96
2018-07-08T23:19:59.444Z,18.93
2018-07-08T23:20:59.449Z,18.89
2018-07-08T23:21:59.549Z,18.87
2018-07-08T23:22:59.471Z,18.86
2018-07-08T23:23:59.487Z,18.78
2018-07-08T23:24:59.497Z,18.75
2018-07-08T23:25:59.570Z,18.72
2018-07-08T23:26:59.511Z,18.71
2018-07-08T23:27:59.535Z,18.69
2018-07-08T23:28:59.539Z,18.68
2018-07-08T23:29:59.557Z,18.64
2018-07-08T23:30:59.566Z,18.65
2018-07-08T23:31:59.573Z,18.65
2018-07-08T23:32:59.589Z,18.64
2018-07-08T23:33:59.598Z,18.72
2018-07-08T23:34:59.612Z,18.66
2018-07-08T23:35:59.622Z,18.66
2018-07-08T23:36:59.644Z,18.69
2018-07-08T23:37:59.646Z,18.59
2018-07-08T23:38:59.658Z,18.60
2018-07-08T23:39:59.675Z,18.62
2018-07-08T23:40:59.691Z,18.56
2018-07-08T23:41:59.752Z,18.53
2018-07-08T23:42:59.700Z,18.46
2018-07-08T23:43:59.707Z,18.39
2018-07-08T23:44:59.754Z,18.39
2018-07-08T23:45:59.732Z,18.35
2018-07-08T23:46:59.743Z,18.39
2018-07-08T23:47:59.760Z,18.34
2018-07-08T23:48:59.779Z,18.38
2018-07-08T23:49:59.795Z,18.38
2018-07-08T23:50:59.804Z,18.47
2018-07-08T23:51:59.811Z,18.46
2018-07-08T23:52:59.811Z,18.34
2018-07-08T23:53:59.830Z,18.42
2018-07-08T23:54:59.843Z,18.39
2018-07-08T23:55:59.863Z,18.29
2018-07-08T23:56:59.860Z,18.31
2018-07-08T23:57:59.872Z,18.31
2018-07-08T23:58:59.885Z,18.25
2018-07-08T23:59:59.886Z,18.31
